createdAt,value
2018-05-07T00:01:34.523Z,21.30
2018-05-07T00:04:02.101Z,21.50
2018-05-07T00:06:29.678Z,21.70
2018-05-07T00:08:57.966Z,20.90
2018-05-07T00:11:25.384Z,20.90
2018-05-07T00:13:52.860Z,20.80
2018-05-07T00:16:20.315Z,21.20
2018-05-07T00:18:47.780Z,21.30
2018-05-07T00:21:15.262Z,20.80
2018-05-07T00:23:43.758Z,20.90
2018-05-07T00:26:11.207Z,21.00
2018-05-07T00:28:38.658Z,21.30
2018-05-07T00:31:06.115Z,20.80
2018-05-07T00:33:33.572Z,20.90
2018-05-07T00:36:01.027Z,20.80
2018-05-07T00:38:28.485Z,20.30
2018-05-07T00:40:55.978Z,20.20
2018-05-07T00:43:23.540Z,20.40
2018-05-07T00:45:51.101Z,19.80
2018-05-07T00:48:18.548Z,20.10
2018-05-07T00:50:46.027Z,20.10
2018-05-07T00:53:13.502Z,20.10
2018-05-07T00:55:40.961Z,19.90
2018-05-07T00:58:08.503Z,20.10
2018-05-07T01:00:36.237Z,20.20
2018-05-07T01:03:03.728Z,20.00
2018-05-07T01:05:31.191Z,20.10
2018-05-07T01:07:58.646Z,20.00
2018-05-07T01:10:26.134Z,20.00
2018-05-07T01:12:53.613Z,20.50
2018-05-07T01:15:21.148Z,20.20
2018-05-07T01:17:48.715Z,20.00
2018-05-07T01:20:16.183Z,19.90
2018-05-07T01:22:43.649Z,20.00
2018-05-07T01:25:11.204Z,20.30
2018-05-07T01:27:38.765Z,20.30
2018-05-07T01:30:07.299Z,19.80
2018-05-07T01:32:35.531Z,19.90
2018-05-07T01:35:03.083Z,19.80
2018-05-07T01:37:30.546Z,20.00
2018-05-07T01:39:58.114Z,20.10
2018-05-07T01:42:25.589Z,20.10
2018-05-07T01:44:53.137Z,19.80
2018-05-07T01:47:20.621Z,19.90
2018-05-07T01:49:48.169Z,20.10
2018-05-07T01:52:15.749Z,20.20
2018-05-07T01:54:43.207Z,19.80
2018-05-07T01:57:10.669Z,20.00
2018-05-07T01:59:38.123Z,20.20
2018-05-07T02:02:05.616Z,20.10
2018-05-07T02:04:33.849Z,20.30
2018-05-07T02:07:01.330Z,20.30
2018-05-07T02:09:28.910Z,20.30
2018-05-07T02:11:56.370Z,20.40
2018-05-07T02:14:23.835Z,20.40
2018-05-07T02:16:52.065Z,20.20
2018-05-07T02:19:19.545Z,20.20
2018-05-07T02:21:46.997Z,20.20
2018-05-07T02:24:14.472Z,20.20
2018-05-07T02:26:41.947Z,20.20
2018-05-07T02:29:09.410Z,20.20
2018-05-07T02:31:37.284Z,20.20
2018-05-07T02:34:05.523Z,20.00
2018-05-07T02:36:32.989Z,20.00
2018-05-07T02:39:00.463Z,20.00
2018-05-07T02:41:27.945Z,19.90
2018-05-07T02:43:55.407Z,19.90
2018-05-07T02:46:22.869Z,19.70
2018-05-07T02:48:50.333Z,19.40
2018-05-07T02:51:17.892Z,19.20
2018-05-07T02:53:45.351Z,19.00
2018-05-07T02:56:12.896Z,19.10
2018-05-07T02:58:40.281Z,18.80
2018-05-07T03:01:07.732Z,19.00
2018-05-07T03:03:35.199Z,19.20
2018-05-07T03:06:02.670Z,18.70
2018-05-07T03:08:30.130Z,18.90
2018-05-07T03:10:57.583Z,19.20
2018-05-07T03:13:25.060Z,19.30
2018-05-07T03:15:52.539Z,19.50
2018-05-07T03:18:20.766Z,19.30
2018-05-07T03:20:48.253Z,19.40
2018-05-07T03:23:15.703Z,19.20
2018-05-07T03:25:43.295Z,19.10
2018-05-07T03:28:11.527Z,19.10
2018-05-07T03:30:39.020Z,19.10
2018-05-07T03:33:06.495Z,19.00
2018-05-07T03:35:33.968Z,18.90
2018-05-07T03:38:01.899Z,18.80
2018-05-07T03:40:29.412Z,18.90
2018-05-07T03:42:56.830Z,18.80
2018-05-07T03:45:24.311Z,18.90
2018-05-07T03:47:51.892Z,18.90
2018-05-07T03:50:19.428Z,19.00
2018-05-07T03:52:46.905Z,19.00
2018-05-07T03:55:14.371Z,18.90
2018-05-07T03:57:42.641Z,18.70
2018-05-07T04:00:10.213Z,18.70
2018-05-07T04:02:37.684Z,18.70
2018-05-07T04:05:05.919Z,18.50
2018-05-07T04:07:33.409Z,18.50
2018-05-07T04:10:00.859Z,18.50
2018-05-07T04:12:28.320Z,18.50
2018-05-07T04:14:55.797Z,18.40
2018-05-07T04:17:35.228Z,18.40
2018-05-07T04:20:14.652Z,18.30
2018-05-07T04:22:54.197Z,18.30
2018-05-07T04:25:21.688Z,18.60
2018-05-07T04:27:49.912Z,18.50
2018-05-07T04:30:17.398Z,18.50
2018-05-07T04:32:44.839Z,18.60
2018-05-07T04:35:12.298Z,18.50
2018-05-07T04:37:40.529Z,18.50
2018-05-07T04:40:08.003Z,18.40
2018-05-07T04:42:36.230Z,18.50
2018-05-07T04:45:03.719Z,18.40
2018-05-07T04:47:31.174Z,18.40
2018-05-07T04:49:58.734Z,18.30
2018-05-07T04:52:26.289Z,18.30
2018-05-07T04:54:53.751Z,18.40
2018-05-07T04:57:21.241Z,18.30
2018-05-07T04:59:48.721Z,18.20
2018-05-07T05:02:16.941Z,18.20
2018-05-07T05:04:44.396Z,18.20
2018-05-07T05:07:11.866Z,18.10
2018-05-07T05:09:39.328Z,18.00
2018-05-07T05:12:06.818Z,18.10
2018-05-07T05:14:34.388Z,18.10
2018-05-07T05:17:01.837Z,18.10
2018-05-07T05:19:29.302Z,18.00
2018-05-07T05:21:56.747Z,18.00
2018-05-07T05:24:24.204Z,17.90
2018-05-07T05:26:51.679Z,17.90
2018-05-07T05:29:19.130Z,17.60
2018-05-07T05:31:46.604Z,17.80
2018-05-07T05:34:14.176Z,17.80
2018-05-07T05:36:41.638Z,17.80
2018-05-07T05:39:09.820Z,17.80
2018-05-07T05:41:38.068Z,17.90
2018-05-07T05:44:05.592Z,17.80
2018-05-07T05:46:32.976Z,18.00
2018-05-07T05:49:00.434Z,18.10
2018-05-07T05:51:27.883Z,17.90
2018-05-07T05:53:56.122Z,17.90
2018-05-07T05:56:23.624Z,17.90
2018-05-07T05:58:51.158Z,17.90
2018-05-07T06:01:18.611Z,18.10
2018-05-07T06:03:46.219Z,18.20
2018-05-07T06:06:13.665Z,18.30
2018-05-07T06:08:41.875Z,18.20
2018-05-07T06:11:09.339Z,18.20
2018-05-07T06:13:36.851Z,18.30
2018-05-07T06:16:04.302Z,18.50
2018-05-07T06:18:31.786Z,18.50
2018-05-07T06:20:59.332Z,18.50
2018-05-07T06:23:26.882Z,18.60
2018-05-07T06:25:54.349Z,18.70
2018-05-07T06:28:21.817Z,18.70
2018-05-07T06:30:49.289Z,18.70
2018-05-07T06:33:16.728Z,18.70
2018-05-07T06:35:44.194Z,18.80
2018-05-07T06:38:11.653Z,19.00
2018-05-07T06:40:39.107Z,19.00
2018-05-07T06:43:06.586Z,19.10
2018-05-07T06:45:34.232Z,19.30
2018-05-07T06:48:01.633Z,19.30
2018-05-07T06:50:29.871Z,19.50
2018-05-07T06:52:57.337Z,19.50
2018-05-07T06:55:24.805Z,19.70
2018-05-07T06:57:52.379Z,19.70
2018-05-07T07:00:19.858Z,19.70
2018-05-07T07:02:47.550Z,19.70
2018-05-07T07:05:15.658Z,19.90
2018-05-07T07:07:43.134Z,19.90
2018-05-07T07:10:10.612Z,20.10
2018-05-07T07:12:38.379Z,20.20
2018-05-07T07:15:05.841Z,20.20
2018-05-07T07:17:33.408Z,20.30
2018-05-07T07:20:00.979Z,20.40
2018-05-07T07:22:28.549Z,20.60
2018-05-07T07:24:56.010Z,20.50
2018-05-07T07:27:23.467Z,20.60
2018-05-07T07:29:51.015Z,20.80
2018-05-07T07:32:18.597Z,20.90
2018-05-07T07:34:46.065Z,20.80
2018-05-07T07:37:13.625Z,20.80
2018-05-07T07:39:41.185Z,21.00
2018-05-07T07:42:08.639Z,21.00
2018-05-07T07:44:36.203Z,21.30
2018-05-07T07:47:03.870Z,21.30
2018-05-07T07:49:31.254Z,21.10
2018-05-07T07:51:59.492Z,21.40
2018-05-07T07:54:26.951Z,21.30
2018-05-07T07:56:54.447Z,21.50
2018-05-07T07:59:23.392Z,21.60
2018-05-07T08:01:50.799Z,21.50
2018-05-07T08:04:18.280Z,21.60
2018-05-07T08:06:45.745Z,21.60
2018-05-07T08:09:14.685Z,21.80
2018-05-07T08:11:42.189Z,21.80
2018-05-07T08:14:09.654Z,21.90
2018-05-07T08:16:37.207Z,21.80
2018-05-07T08:19:05.248Z,22.00
2018-05-07T08:21:32.712Z,22.10
2018-05-07T08:24:00.177Z,22.00
2018-05-07T08:26:27.627Z,22.20
2018-05-07T08:28:55.140Z,22.20
2018-05-07T08:31:22.655Z,22.20
2018-05-07T08:33:50.865Z,22.20
2018-05-07T08:36:18.326Z,22.10
2018-05-07T08:38:45.783Z,22.30
2018-05-07T08:41:13.270Z,22.40
2018-05-07T08:43:40.732Z,22.40
2018-05-07T08:46:08.195Z,22.60
2018-05-07T08:48:35.735Z,22.80
2018-05-07T08:51:03.344Z,22.70
2018-05-07T08:53:30.884Z,22.60
2018-05-07T08:55:58.350Z,22.80
2018-05-07T08:58:26.572Z,22.80
2018-05-07T09:00:54.044Z,22.80
2018-05-07T09:03:21.514Z,22.90
2018-05-07T09:05:48.990Z,23.00
2018-05-07T09:08:16.466Z,23.10
2018-05-07T09:10:43.924Z,23.10
2018-05-07T09:13:11.395Z,23.10
2018-05-07T09:15:38.872Z,23.30
2018-05-07T09:18:07.102Z,23.40
2018-05-07T09:20:34.570Z,23.40
2018-05-07T09:23:02.042Z,23.40
2018-05-07T09:25:29.989Z,23.50
2018-05-07T09:27:57.446Z,23.50
2018-05-07T09:30:24.906Z,23.40
2018-05-07T09:32:52.439Z,23.50
2018-05-07T09:35:20.659Z,23.60
2018-05-07T09:37:48.150Z,23.50
2018-05-07T09:40:15.605Z,23.60
2018-05-07T09:42:43.096Z,23.70
2018-05-07T09:45:10.564Z,23.70
2018-05-07T09:47:38.811Z,23.70
2018-05-07T09:50:06.269Z,23.70
2018-05-07T09:52:33.740Z,24.00
2018-05-07T09:55:01.211Z,24.10
2018-05-07T09:57:28.793Z,24.00
2018-05-07T09:59:57.760Z,24.30
2018-05-07T10:02:25.243Z,24.30
2018-05-07T10:04:52.694Z,24.50
2018-05-07T10:07:20.156Z,24.30
2018-05-07T10:09:47.623Z,24.40
2018-05-07T10:12:15.186Z,24.50
2018-05-07T10:14:42.627Z,24.70
2018-05-07T10:17:10.177Z,24.50
2018-05-07T10:19:37.580Z,24.50
2018-05-07T10:22:06.315Z,23.60
2018-05-07T10:24:33.784Z,23.60
2018-05-07T10:27:02.010Z,24.00
2018-05-07T10:29:29.492Z,24.00
2018-05-07T10:31:57.011Z,24.10
2018-05-07T10:34:24.470Z,24.10
2018-05-07T10:36:51.943Z,24.20
2018-05-07T10:39:19.391Z,24.20
2018-05-07T10:41:46.886Z,24.50
2018-05-07T10:44:15.117Z,24.50
2018-05-07T10:46:42.629Z,24.50
2018-05-07T10:49:10.927Z,24.30
2018-05-07T10:51:39.181Z,24.20
2018-05-07T10:54:06.732Z,24.20
2018-05-07T10:56:34.295Z,24.40
2018-05-07T10:59:01.750Z,24.40
2018-05-07T11:01:29.215Z,24.40
2018-05-07T11:03:56.695Z,24.60
2018-05-07T11:06:24.162Z,24.90
2018-05-07T11:08:52.158Z,24.80
2018-05-07T11:11:20.399Z,24.90
2018-05-07T11:13:48.033Z,24.80
2018-05-07T11:16:15.497Z,25.00
2018-05-07T11:18:43.725Z,25.30
2018-05-07T11:21:11.940Z,25.50
2018-05-07T11:23:39.399Z,25.50
2018-05-07T11:26:07.632Z,25.60
2018-05-07T11:28:35.109Z,25.60
2018-05-07T11:31:02.709Z,25.70
2018-05-07T11:33:30.236Z,25.90
2018-05-07T11:35:57.717Z,26.10
2018-05-07T11:38:25.937Z,25.70
2018-05-07T11:40:53.399Z,25.70
2018-05-07T11:43:20.896Z,25.40
2018-05-07T11:45:48.355Z,25.30
2018-05-07T11:48:15.811Z,25.70
2018-05-07T11:50:44.149Z,25.80
2018-05-07T11:53:12.406Z,25.80
2018-05-07T11:55:39.831Z,25.80
2018-05-07T11:58:07.318Z,26.00
2018-05-07T12:00:34.775Z,26.20
2018-05-07T12:03:02.341Z,26.00
2018-05-07T12:05:29.791Z,25.70
2018-05-07T12:07:57.315Z,25.60
2018-05-07T12:10:24.766Z,25.50
2018-05-07T12:12:52.478Z,25.50
2018-05-07T12:15:20.060Z,25.80
2018-05-07T12:17:49.037Z,25.80
2018-05-07T12:20:16.568Z,25.80
2018-05-07T12:22:44.178Z,25.90
2018-05-07T12:25:11.650Z,25.80
2018-05-07T12:27:39.903Z,25.90
2018-05-07T12:30:07.387Z,25.90
2018-05-07T12:32:36.542Z,25.80
2018-05-07T12:35:04.972Z,25.80
2018-05-07T12:37:33.484Z,25.50
2018-05-07T12:40:01.177Z,25.50
2018-05-07T12:42:28.645Z,25.80
2018-05-07T12:44:56.090Z,25.70
2018-05-07T12:47:23.558Z,25.90
2018-05-07T12:49:51.032Z,26.00
2018-05-07T12:52:18.612Z,25.90
2018-05-07T12:54:45.995Z,25.90
2018-05-07T12:57:13.461Z,25.80
2018-05-07T12:59:40.918Z,26.10
2018-05-07T13:02:08.377Z,26.50
2018-05-07T13:04:35.852Z,26.20
2018-05-07T13:07:03.337Z,26.20
2018-05-07T13:09:31.567Z,26.30
2018-05-07T13:11:59.027Z,26.30
2018-05-07T13:14:27.102Z,26.40
2018-05-07T13:16:54.570Z,26.50
2018-05-07T13:19:22.058Z,26.50
2018-05-07T13:21:51.031Z,26.50
2018-05-07T13:24:18.500Z,26.50
2018-05-07T13:26:45.956Z,26.10
2018-05-07T13:29:13.438Z,26.30
2018-05-07T13:31:41.674Z,27.00
2018-05-07T13:34:10.027Z,27.10
2018-05-07T13:36:38.246Z,26.60
2018-05-07T13:39:05.747Z,26.60
2018-05-07T13:41:33.193Z,26.30
2018-05-07T13:44:00.643Z,26.10
2018-05-07T13:46:28.117Z,25.80
2018-05-07T13:48:55.576Z,26.30
2018-05-07T13:51:23.033Z,26.20
2018-05-07T13:53:50.497Z,26.60
2018-05-07T13:56:17.960Z,27.00
2018-05-07T13:58:45.438Z,26.50
2018-05-07T14:01:13.665Z,26.80
2018-05-07T14:03:41.178Z,26.80
2018-05-07T14:06:09.331Z,26.80
2018-05-07T14:08:36.873Z,26.90
2018-05-07T14:11:04.908Z,26.70
2018-05-07T14:13:32.462Z,27.00
2018-05-07T14:16:01.494Z,27.20
2018-05-07T14:18:29.715Z,27.40
2018-05-07T14:20:57.192Z,27.40
2018-05-07T14:23:24.693Z,27.40
2018-05-07T14:25:52.952Z,28.20
2018-05-07T14:28:21.182Z,27.80
2018-05-07T14:30:48.669Z,27.80
2018-05-07T14:33:16.236Z,26.90
2018-05-07T14:35:43.683Z,26.70
2018-05-07T14:38:11.163Z,26.60
2018-05-07T14:40:38.646Z,27.40
2018-05-07T14:43:07.616Z,27.10
2018-05-07T14:45:35.075Z,27.10
2018-05-07T14:48:02.540Z,26.90
2018-05-07T14:50:30.019Z,26.90
2018-05-07T14:52:59.020Z,27.10
2018-05-07T14:55:28.005Z,27.40
2018-05-07T14:57:55.473Z,27.40
2018-05-07T15:00:22.929Z,27.70
2018-05-07T15:02:50.497Z,27.20
2018-05-07T15:05:18.059Z,27.10
2018-05-07T15:07:45.631Z,27.60
2018-05-07T15:10:13.865Z,26.90
2018-05-07T15:12:41.325Z,26.90
2018-05-07T15:15:08.796Z,27.70
2018-05-07T15:17:36.246Z,28.20
2018-05-07T15:20:03.728Z,28.10
2018-05-07T15:22:31.217Z,28.40
2018-05-07T15:24:58.815Z,28.20
2018-05-07T15:27:27.053Z,27.60
2018-05-07T15:29:54.770Z,27.50
2018-05-07T15:32:23.107Z,27.40
2018-05-07T15:34:50.580Z,27.40
2018-05-07T15:37:20.565Z,27.90
2018-05-07T15:39:48.852Z,27.70
2018-05-07T15:42:16.328Z,27.70
2018-05-07T15:44:43.785Z,28.00
2018-05-07T15:47:11.249Z,27.80
2018-05-07T15:49:39.908Z,28.20
2018-05-07T15:52:07.415Z,28.30
2018-05-07T15:54:34.985Z,28.30
2018-05-07T15:57:02.468Z,28.00
2018-05-07T15:59:30.675Z,27.00
2018-05-07T16:01:58.133Z,26.90
2018-05-07T16:04:25.606Z,27.60
2018-05-07T16:06:53.110Z,28.50
2018-05-07T16:09:20.577Z,28.30
2018-05-07T16:11:48.084Z,28.20
2018-05-07T16:14:15.593Z,27.50
2018-05-07T16:16:43.072Z,26.80
2018-05-07T16:19:10.539Z,26.50
2018-05-07T16:21:37.987Z,26.80
2018-05-07T16:24:06.963Z,27.20
2018-05-07T16:26:34.440Z,27.20
2018-05-07T16:29:02.007Z,27.70
2018-05-07T16:31:29.471Z,28.00
2018-05-07T16:33:56.943Z,28.00
2018-05-07T16:36:25.905Z,26.70
2018-05-07T16:38:53.374Z,26.70
2018-05-07T16:41:20.825Z,27.60
2018-05-07T16:43:48.304Z,28.00
2018-05-07T16:46:15.770Z,27.10
2018-05-07T16:48:43.309Z,26.90
2018-05-07T16:51:10.696Z,27.50
2018-05-07T16:53:39.756Z,29.30
2018-05-07T16:56:07.221Z,29.30
2018-05-07T16:58:34.688Z,29.70
2018-05-07T17:01:02.932Z,30.10
2018-05-07T17:03:31.154Z,30.30
2018-05-07T17:05:58.734Z,30.30
2018-05-07T17:08:26.281Z,30.00
2018-05-07T17:10:53.664Z,30.00
2018-05-07T17:13:21.121Z,29.30
2018-05-07T17:15:48.573Z,29.30
2018-05-07T17:18:16.539Z,29.40
2018-05-07T17:20:44.000Z,29.20
2018-05-07T17:23:11.459Z,29.40
2018-05-07T17:25:38.919Z,29.60
2018-05-07T17:28:06.376Z,29.90
2018-05-07T17:30:33.883Z,29.90
2018-05-07T17:33:01.313Z,29.70
2018-05-07T17:35:28.764Z,29.60
2018-05-07T17:37:56.219Z,29.60
2018-05-07T17:40:23.677Z,29.40
2018-05-07T17:42:51.198Z,29.50
2018-05-07T17:45:33.565Z,29.50
2018-05-07T17:48:13.045Z,29.20
2018-05-07T17:50:41.196Z,29.30
2018-05-07T17:53:08.640Z,29.30
2018-05-07T17:55:36.124Z,29.40
2018-05-07T17:58:03.674Z,29.50
2018-05-07T18:00:31.174Z,29.30
2018-05-07T18:02:58.597Z,29.40
2018-05-07T18:05:26.629Z,29.50
2018-05-07T18:07:54.844Z,29.10
2018-05-07T18:10:22.318Z,29.10
2018-05-07T18:12:49.777Z,29.20
2018-05-07T18:15:17.266Z,28.90
2018-05-07T18:17:45.500Z,28.80
2018-05-07T18:20:12.956Z,28.80
2018-05-07T18:22:40.473Z,28.90
2018-05-07T18:25:07.935Z,29.00
2018-05-07T18:27:35.402Z,29.00
2018-05-07T18:30:02.868Z,29.10
2018-05-07T18:32:30.404Z,29.10
2018-05-07T18:34:58.584Z,29.20
2018-05-07T18:37:26.042Z,29.10
2018-05-07T18:39:53.623Z,29.20
2018-05-07T18:42:21.167Z,29.00
2018-05-07T18:44:48.735Z,29.10
2018-05-07T18:47:16.228Z,29.00
2018-05-07T18:49:43.767Z,29.00
2018-05-07T18:52:11.289Z,28.90
2018-05-07T18:54:38.745Z,28.50
2018-05-07T18:57:06.195Z,28.60
2018-05-07T18:59:34.419Z,28.60
2018-05-07T19:02:02.285Z,28.60
2018-05-07T19:04:29.753Z,28.60
2018-05-07T19:06:57.558Z,28.50
2018-05-07T19:09:25.095Z,28.40
2018-05-07T19:11:52.553Z,28.40
2018-05-07T19:14:20.116Z,28.40
2018-05-07T19:16:47.500Z,28.30
2018-05-07T19:19:15.732Z,28.20
2018-05-07T19:21:43.202Z,28.20
2018-05-07T19:24:10.657Z,28.10
2018-05-07T19:26:38.124Z,28.00
2018-05-07T19:29:05.598Z,28.00
2018-05-07T19:31:33.189Z,28.00
2018-05-07T19:34:00.572Z,27.90
2018-05-07T19:36:28.029Z,27.00
2018-05-07T19:38:56.990Z,27.00
2018-05-07T19:41:24.452Z,27.00
2018-05-07T19:43:51.905Z,26.80
2018-05-07T19:46:19.389Z,26.60
2018-05-07T19:48:46.858Z,26.60
2018-05-07T19:51:15.122Z,26.90
2018-05-07T19:53:42.623Z,26.80
2018-05-07T19:56:10.852Z,26.70
2018-05-07T19:58:38.318Z,26.70
2018-05-07T20:01:05.794Z,26.60
2018-05-07T20:03:33.234Z,26.40
2018-05-07T20:06:00.685Z,26.50
2018-05-07T20:08:28.151Z,26.30
2018-05-07T20:10:55.612Z,26.50
2018-05-07T20:13:23.087Z,26.40
2018-05-07T20:15:50.569Z,26.40
2018-05-07T20:18:18.142Z,26.60
2018-05-07T20:20:45.599Z,26.50
2018-05-07T20:23:13.836Z,26.50
2018-05-07T20:25:41.305Z,26.30
2018-05-07T20:28:08.800Z,26.30
2018-05-07T20:30:37.792Z,26.30
2018-05-07T20:33:05.320Z,26.30
2018-05-07T20:35:32.730Z,26.30
2018-05-07T20:38:01.707Z,26.00
2018-05-07T20:40:29.198Z,26.10
2018-05-07T20:42:57.417Z,25.90
2018-05-07T20:45:24.877Z,25.90
2018-05-07T20:47:52.357Z,26.00
2018-05-07T20:50:19.840Z,26.00
2018-05-07T20:52:47.325Z,25.90
2018-05-07T20:55:14.780Z,26.00
2018-05-07T20:57:43.750Z,25.90
2018-05-07T21:00:11.255Z,25.90
2018-05-07T21:02:38.704Z,25.80
2018-05-07T21:05:07.656Z,25.80
2018-05-07T21:07:35.119Z,25.80
2018-05-07T21:10:02.587Z,25.70
2018-05-07T21:12:30.061Z,25.60
2018-05-07T21:14:57.521Z,25.60
2018-05-07T21:17:25.005Z,25.50
2018-05-07T21:19:52.588Z,25.50
2018-05-07T21:22:20.811Z,25.30
2018-05-07T21:24:48.269Z,25.30
2018-05-07T21:27:15.778Z,25.20
2018-05-07T21:29:44.120Z,25.10
2018-05-07T21:32:11.618Z,25.10
2018-05-07T21:34:40.257Z,25.10
2018-05-07T21:37:07.733Z,25.10
2018-05-07T21:39:35.236Z,25.10
2018-05-07T21:42:03.464Z,24.70
2018-05-07T21:44:30.921Z,24.70
2018-05-07T21:46:58.393Z,24.70
2018-05-07T21:49:25.853Z,24.70
2018-05-07T21:51:53.332Z,24.80
2018-05-07T21:54:20.801Z,24.80
2018-05-07T21:56:48.389Z,24.90
2018-05-07T21:59:16.627Z,24.70
2018-05-07T22:01:44.078Z,24.70
2018-05-07T22:04:11.571Z,24.70
2018-05-07T22:06:39.041Z,24.80
2018-05-07T22:09:06.504Z,24.80
2018-05-07T22:11:34.074Z,24.80
2018-05-07T22:14:01.634Z,24.80
2018-05-07T22:16:29.198Z,24.80
2018-05-07T22:18:56.773Z,24.60
2018-05-07T22:21:25.747Z,24.50
2018-05-07T22:23:53.232Z,24.50
2018-05-07T22:26:20.707Z,24.50
2018-05-07T22:28:48.954Z,24.40
2018-05-07T22:31:16.411Z,24.40
2018-05-07T22:33:43.885Z,24.20
2018-05-07T22:36:11.349Z,24.20
2018-05-07T22:38:38.833Z,24.20
2018-05-07T22:41:07.816Z,24.00
2018-05-07T22:43:35.375Z,24.00
2018-05-07T22:46:02.933Z,24.10
2018-05-07T22:48:30.390Z,23.90
2018-05-07T22:50:58.024Z,23.50
2018-05-07T22:53:25.500Z,23.60
2018-05-07T22:55:53.063Z,23.80
2018-05-07T22:58:21.226Z,23.50
2018-05-07T23:00:48.776Z,23.50
2018-05-07T23:03:16.201Z,23.60
2018-05-07T23:05:43.656Z,23.70
2018-05-07T23:08:11.222Z,23.50
2018-05-07T23:10:38.691Z,23.50
2018-05-07T23:13:06.238Z,23.60
2018-05-07T23:15:34.766Z,23.50
2018-05-07T23:18:02.985Z,23.40
2018-05-07T23:20:30.453Z,23.40
2018-05-07T23:22:57.941Z,23.20
2018-05-07T23:25:25.508Z,22.90
2018-05-07T23:27:52.964Z,22.80
2018-05-07T23:30:20.433Z,22.70
2018-05-07T23:32:47.892Z,22.20
2018-05-07T23:35:15.344Z,22.20
2018-05-07T23:37:42.802Z,22.30
2018-05-07T23:40:10.262Z,22.30
2018-05-07T23:42:37.715Z,22.80
2018-05-07T23:45:05.200Z,22.90
2018-05-07T23:47:32.959Z,23.00
2018-05-07T23:50:00.441Z,22.90
2018-05-07T23:52:28.666Z,22.80
2018-05-07T23:54:56.127Z,22.80
2018-05-07T23:57:23.602Z,22.80
2018-05-07T23:59:51.076Z,22.70
